Time;durP1;ratioP1;P1;durP2;ratioP2;P2;SDS_P1;SDS_P2;PMS_P1;PMS_P2;Temp;Humidity;BMP_temperature;BMP_pressure;BME280_temperature;BME280_humidity;BME280_pressure;Samples;Min_cycle;Max_cycle;Signal;HPM_P1;HPM_P2
2021/12/22 00:01:40;;;;;;;152.93;74.97;;;;;;;;;;4999482;28;20045;-86
2021/12/22 00:04:06;;;;;;;182.38;88.10;;;;;;;;;;4998764;28;20022;-86
2021/12/22 00:06:34;;;;;;;214.50;99.78;;;;;;;;;;4999715;28;20034;-88
2021/12/22 00:09:00;;;;;;;219.50;94.20;;;;;;;;;;4999809;28;20023;-88
2021/12/22 00:11:27;;;;;;;205.73;94.90;;;;;;;;;;4998594;28;20038;-87
2021/12/22 00:13:53;;;;;;;206.95;94.15;;;;;;;;;;4999444;28;20026;-87
2021/12/22 00:16:19;;;;;;;194.13;92.10;;;;;;;;;;4998209;28;20026;-88
2021/12/22 00:18:45;;;;;;;203.15;95.53;;;;;;;;;;4999223;28;20412;-88
2021/12/22 00:21:11;;;;;;;196.38;90.80;;;;;;;;;;4999488;28;20019;-88
2021/12/22 00:23:38;;;;;;;197.55;90.22;;;;;;;;;;4999355;28;20022;-87
2021/12/22 00:26:04;;;;;;;195.32;87.10;;;;;;;;;;4998321;28;20476;-88
2021/12/22 00:28:32;;;;;;;191.82;86.40;;;;;;;;;;4999478;28;20038;-86
2021/12/22 00:30:58;;;;;;;187.38;83.43;;;;;;;;;;4997551;28;20456;-87
2021/12/22 00:33:27;;;;;;;191.68;89.78;;;;;;;;;;4999075;28;20026;-87
2021/12/22 00:35:53;;;;;;;181.20;83.85;;;;;;;;;;4998800;28;20030;-87
2021/12/22 00:38:20;;;;;;;182.98;86.07;;;;;;;;;;4999209;28;20050;-87
2021/12/22 00:40:47;;;;;;;181.93;88.70;;;;;;;;;;4997649;28;20121;-87
2021/12/22 00:43:14;;;;;;;169.02;83.03;;;;;;;;;;4999084;28;20026;-88
2021/12/22 00:45:40;;;;;;;154.40;72.55;;;;;;;;;;4998011;28;20076;-86
2021/12/22 00:48:07;;;;;;;146.20;68.45;;;;;;;;;;4998904;28;20076;-88
2021/12/22 00:50:33;;;;;;;141.02;66.43;;;;;;;;;;4998722;28;20022;-88
2021/12/22 00:53:00;;;;;;;142.73;63.17;;;;;;;;;;4981634;28;20026;-89
2021/12/22 00:55:26;;;;;;;131.68;64.25;;;;;;;;;;4998608;28;20030;-88
2021/12/22 00:57:52;;;;;;;136.45;62.28;;;;;;;;;;4998724;28;20037;-89
2021/12/22 01:00:20;;;;;;;119.60;56.42;;;;;;;;;;4998344;28;20436;-89
2021/12/22 01:02:46;;;;;;;126.72;54.83;;;;;;;;;;4998520;28;20408;-89
2021/12/22 01:05:14;;;;;;;118.03;53.78;;;;;;;;;;4997612;28;20035;-88
2021/12/22 01:07:41;;;;;;;123.28;54.67;;;;;;;;;;4998751;28;20101;-89
2021/12/22 01:10:07;;;;;;;118.63;56.45;;;;;;;;;;4997609;28;20356;-89
2021/12/22 01:12:33;;;;;;;109.85;53.92;;;;;;;;;;4997414;28;20030;-88
2021/12/22 01:15:00;;;;;;;117.50;54.97;;;;;;;;;;4997705;28;20026;-88
2021/12/22 01:17:26;;;;;;;130.10;61.38;;;;;;;;;;4997075;28;20417;-89
2021/12/22 01:20:08;;;;;;;108.50;53.35;;;;;;;;;;4998404;28;20030;-89
2021/12/22 01:22:48;;;;;;;106.35;52.90;;;;;;;;;;4998498;28;20014;-89
2021/12/22 01:25:16;;;;;;;109.15;51.45;;;;;;;;;;4998347;28;20117;-89
2021/12/22 01:27:43;;;;;;;100.95;50.10;;;;;;;;;;4997413;28;20112;-89
2021/12/22 01:30:09;;;;;;;105.05;51.42;;;;;;;;;;4997371;28;20026;-88
2021/12/22 01:32:35;;;;;;;113.30;54.00;;;;;;;;;;4997268;28;20022;-87
2021/12/22 01:35:01;;;;;;;131.43;58.80;;;;;;;;;;4998207;28;20411;-88
2021/12/22 01:37:27;;;;;;;131.40;58.67;;;;;;;;;;4998439;28;20317;-86
2021/12/22 01:39:53;;;;;;;129.57;59.38;;;;;;;;;;4998147;28;20022;-87
2021/12/22 01:42:20;;;;;;;123.95;58.15;;;;;;;;;;4998100;28;20026;-88
2021/12/22 01:50:14;;;;;;;83.28;40.45;;;;;;;;;;4998300;28;20340;-87
2021/12/22 01:52:40;;;;;;;85.57;39.55;;;;;;;;;;4998119;28;20030;-85
2021/12/22 01:55:14;;;;;;;88.35;40.95;;;;;;;;;;4998008;28;20077;-85
2021/12/22 01:57:45;;;;;;;86.50;41.22;;;;;;;;;;4997792;28;20039;-85
2021/12/22 02:00:11;;;;;;;80.43;39.13;;;;;;;;;;4997443;28;20092;-88
2021/12/22 02:02:37;;;;;;;89.55;41.30;;;;;;;;;;4997878;28;20130;-87
2021/12/22 02:05:04;;;;;;;81.95;38.25;;;;;;;;;;4998166;28;20026;-85
2021/12/22 02:07:30;;;;;;;78.13;37.03;;;;;;;;;;4996836;28;20089;-88
2021/12/22 02:12:47;;;;;;;77.63;37.30;;;;;;;;;;4998081;28;20126;-89
2021/12/22 02:15:13;;;;;;;80.25;40.55;;;;;;;;;;4996809;28;20034;-89
2021/12/22 02:17:40;;;;;;;90.05;45.22;;;;;;;;;;4997943;28;20023;-89
2021/12/22 02:20:07;;;;;;;101.35;48.78;;;;;;;;;;4997972;28;20023;-89
2021/12/22 02:22:34;;;;;;;98.72;47.05;;;;;;;;;;4996725;28;20069;-88
2021/12/22 02:25:06;;;;;;;95.63;44.28;;;;;;;;;;4998247;28;20306;-89
2021/12/22 02:27:39;;;;;;;104.88;47.13;;;;;;;;;;4999872;28;20049;-90
2021/12/22 02:30:06;;;;;;;96.50;45.80;;;;;;;;;;5001676;28;20029;-89
2021/12/22 02:35:05;;;;;;;95.45;42.97;;;;;;;;;;5001257;28;20114;-86
2021/12/22 02:37:41;;;;;;;96.00;46.00;;;;;;;;;;5000514;28;20030;-86
2021/12/22 02:40:12;;;;;;;97.57;45.80;;;;;;;;;;5001266;28;20018;-86
2021/12/22 02:42:38;;;;;;;98.90;44.90;;;;;;;;;;5001511;28;20085;-86
2021/12/22 02:45:14;;;;;;;92.30;45.70;;;;;;;;;;5000192;28;20053;-87
2021/12/22 02:47:40;;;;;;;90.93;44.20;;;;;;;;;;5001230;28;20036;-87
2021/12/22 02:50:07;;;;;;;86.60;43.45;;;;;;;;;;5000183;28;20105;-88
2021/12/22 02:52:47;;;;;;;82.20;40.65;;;;;;;;;;5000011;28;20064;-88
2021/12/22 02:55:13;;;;;;;83.18;44.42;;;;;;;;;;5000176;28;20324;-88
2021/12/22 02:57:45;;;;;;;89.13;43.25;;;;;;;;;;4999730;28;20133;-86
2021/12/22 03:05:48;;;;;;;91.85;43.85;;;;;;;;;;4997022;28;20081;-85
2021/12/22 03:08:17;;;;;;;88.28;44.08;;;;;;;;;;4999823;28;20069;-87
2021/12/22 03:10:43;;;;;;;91.15;44.45;;;;;;;;;;5001077;28;20073;-88
2021/12/22 03:13:09;;;;;;;92.10;45.83;;;;;;;;;;5000612;28;20101;-88
2021/12/22 03:15:35;;;;;;;94.07;45.83;;;;;;;;;;5000318;28;20026;-88
2021/12/22 03:18:03;;;;;;;88.85;45.17;;;;;;;;;;5000648;28;20037;-87
2021/12/22 03:20:29;;;;;;;88.18;43.92;;;;;;;;;;5000727;28;20364;-86
2021/12/22 03:22:55;;;;;;;94.20;44.63;;;;;;;;;;5000721;28;20023;-87
2021/12/22 03:25:26;;;;;;;91.82;46.30;;;;;;;;;;4999414;28;20053;-86
2021/12/22 03:27:53;;;;;;;92.68;45.15;;;;;;;;;;5000271;28;20113;-87
2021/12/22 03:30:21;;;;;;;85.50;44.42;;;;;;;;;;5000636;28;20034;-87
2021/12/22 03:32:48;;;;;;;90.25;49.15;;;;;;;;;;5000402;28;20397;-87
2021/12/22 03:35:20;;;;;;;86.55;44.83;;;;;;;;;;5000156;28;20027;-87
2021/12/22 03:37:49;;;;;;;91.35;49.30;;;;;;;;;;4999708;28;20029;-87
2021/12/22 03:40:15;;;;;;;95.45;54.83;;;;;;;;;;5000233;28;20034;-87
2021/12/22 03:42:41;;;;;;;79.07;41.83;;;;;;;;;;5000326;28;20061;-87
2021/12/22 03:45:07;;;;;;;72.47;37.53;;;;;;;;;;5000136;28;20018;-86
2021/12/22 03:47:33;;;;;;;66.82;34.95;;;;;;;;;;5000345;28;20058;-87
2021/12/22 03:49:59;;;;;;;65.22;35.33;;;;;;;;;;5000059;28;20022;-86
2021/12/22 03:52:25;;;;;;;69.80;34.45;;;;;;;;;;5000040;28;20332;-86
2021/12/22 03:54:57;;;;;;;83.05;48.05;;;;;;;;;;4999052;28;20389;-87
2021/12/22 03:57:24;;;;;;;83.07;50.45;;;;;;;;;;4999829;28;20286;-87
2021/12/22 03:59:50;;;;;;;68.53;39.38;;;;;;;;;;4999924;28;20488;-87
2021/12/22 04:02:19;;;;;;;74.63;43.38;;;;;;;;;;4999784;28;20357;-87
2021/12/22 04:04:47;;;;;;;77.80;45.13;;;;;;;;;;4999928;28;20100;-88
2021/12/22 04:07:13;;;;;;;73.00;41.33;;;;;;;;;;4999892;28;20030;-87
2021/12/22 04:09:39;;;;;;;68.80;37.63;;;;;;;;;;4999637;28;20030;-87
2021/12/22 04:12:06;;;;;;;91.25;46.20;;;;;;;;;;4999494;28;20025;-87
2021/12/22 04:14:32;;;;;;;119.38;55.70;;;;;;;;;;4999332;28;20328;-86
2021/12/22 04:16:58;;;;;;;113.65;56.05;;;;;;;;;;4998631;28;20424;-87
2021/12/22 04:19:24;;;;;;;95.00;50.00;;;;;;;;;;4999326;28;20069;-88
2021/12/22 04:21:51;;;;;;;93.15;46.78;;;;;;;;;;4999116;28;20041;-87
2021/12/22 04:24:17;;;;;;;78.90;42.80;;;;;;;;;;4999333;28;20054;-87
2021/12/22 04:26:43;;;;;;;81.68;43.50;;;;;;;;;;4999173;28;20050;-85
2021/12/22 04:29:11;;;;;;;79.88;44.70;;;;;;;;;;4999612;28;20035;-86
2021/12/22 04:31:40;;;;;;;83.20;41.78;;;;;;;;;;4999507;28;20026;-87
2021/12/22 04:34:09;;;;;;;78.05;40.35;;;;;;;;;;4999302;28;20026;-88
2021/12/22 04:36:39;;;;;;;75.50;40.03;;;;;;;;;;4997948;28;20102;-87
2021/12/22 04:39:06;;;;;;;73.57;39.42;;;;;;;;;;4999051;28;20357;-87
2021/12/22 04:41:33;;;;;;;76.10;38.05;;;;;;;;;;4998080;28;20026;-87
2021/12/22 04:43:59;;;;;;;75.93;39.85;;;;;;;;;;4998694;28;20026;-88
2021/12/22 04:46:25;;;;;;;78.07;43.33;;;;;;;;;;4999167;28;20026;-90
2021/12/22 04:48:51;;;;;;;79.03;41.45;;;;;;;;;;4998078;28;20377;-88
2021/12/22 04:51:27;;;;;;;76.47;38.70;;;;;;;;;;4999032;28;20052;-86
2021/12/22 04:54:02;;;;;;;77.90;39.33;;;;;;;;;;4998968;28;20030;-87
2021/12/22 04:56:29;;;;;;;80.68;43.38;;;;;;;;;;4998650;28;20093;-86
2021/12/22 04:58:55;;;;;;;68.88;39.53;;;;;;;;;;4998542;28;20046;-87
2021/12/22 05:01:21;;;;;;;65.85;36.13;;;;;;;;;;4998598;28;20082;-86
2021/12/22 05:03:47;;;;;;;66.28;36.00;;;;;;;;;;4997675;28;20357;-86
2021/12/22 05:06:13;;;;;;;68.18;37.88;;;;;;;;;;4997640;28;20030;-86
2021/12/22 05:08:39;;;;;;;68.80;39.83;;;;;;;;;;4997666;28;20026;-87
2021/12/22 05:11:05;;;;;;;73.55;40.70;;;;;;;;;;4998653;28;20076;-89
2021/12/22 05:13:34;;;;;;;71.38;38.45;;;;;;;;;;4998312;28;20034;-89
2021/12/22 05:16:03;;;;;;;73.22;37.85;;;;;;;;;;4996972;28;20042;-89
2021/12/22 05:18:50;;;;;;;76.15;40.90;;;;;;;;;;4998206;28;20031;-88
2021/12/22 05:21:17;;;;;;;199.88;78.32;;;;;;;;;;4998348;28;20093;-89
2021/12/22 05:23:43;;;;;;;414.55;163.30;;;;;;;;;;4998240;28;20109;-89
2021/12/22 05:26:09;;;;;;;277.00;104.25;;;;;;;;;;4998307;28;20030;-89
2021/12/22 05:28:35;;;;;;;262.10;98.15;;;;;;;;;;4998310;28;20332;-88
2021/12/22 05:31:01;;;;;;;127.10;48.53;;;;;;;;;;4998172;28;20436;-88
2021/12/22 05:33:27;;;;;;;70.18;35.25;;;;;;;;;;4998275;28;20030;-89
2021/12/22 05:35:53;;;;;;;69.20;36.20;;;;;;;;;;4996381;28;20034;-87
2021/12/22 05:38:19;;;;;;;70.97;35.92;;;;;;;;;;4996989;28;20023;-87
2021/12/22 05:40:45;;;;;;;68.65;35.58;;;;;;;;;;4998174;28;20018;-87
2021/12/22 05:43:11;;;;;;;71.97;35.42;;;;;;;;;;4997330;28;20359;-88
2021/12/22 05:45:37;;;;;;;239.68;115.53;;;;;;;;;;4998159;28;20033;-87
2021/12/22 05:48:04;;;;;;;133.75;68.00;;;;;;;;;;4998146;28;20033;-87
2021/12/22 05:50:30;;;;;;;83.28;43.60;;;;;;;;;;4997112;28;20038;-88
2021/12/22 05:52:56;;;;;;;101.50;54.70;;;;;;;;;;4997879;28;20471;-87
2021/12/22 05:55:23;;;;;;;90.35;50.90;;;;;;;;;;4997825;28;20294;-87
2021/12/22 05:57:49;;;;;;;264.33;131.27;;;;;;;;;;4998183;28;20113;-86
2021/12/22 06:00:16;;;;;;;99.53;54.35;;;;;;;;;;4998593;28;20046;-86
2021/12/22 06:02:42;;;;;;;70.82;37.42;;;;;;;;;;5000915;28;20026;-86
2021/12/22 06:05:08;;;;;;;94.45;50.83;;;;;;;;;;5000367;28;20046;-87
2021/12/22 06:07:36;;;;;;;264.05;127.40;;;;;;;;;;5001953;28;20045;-87
2021/12/22 06:10:04;;;;;;;81.32;43.30;;;;;;;;;;5000758;28;20027;-86
2021/12/22 06:12:30;;;;;;;84.45;46.63;;;;;;;;;;5001856;28;20356;-87
2021/12/22 06:41:22;;;;;;;71.43;34.35;;;;;;;;;;5031561;23;20150;-87
2021/12/22 06:43:48;;;;;;;68.18;35.08;;;;;;;;;;5000306;28;20062;-87
2021/12/22 06:46:14;;;;;;;65.90;35.15;;;;;;;;;;5001238;28;20041;-87
2021/12/22 06:48:40;;;;;;;69.38;36.45;;;;;;;;;;5000246;28;20030;-87
2021/12/22 06:51:06;;;;;;;65.50;34.58;;;;;;;;;;5001078;28;20050;-87
2021/12/22 06:53:34;;;;;;;142.30;60.47;;;;;;;;;;5001000;28;20117;-87
2021/12/22 06:56:01;;;;;;;436.95;191.25;;;;;;;;;;5001182;28;20408;-88
2021/12/22 06:58:27;;;;;;;1434.72;620.83;;;;;;;;;;4999928;28;20022;-88
2021/12/22 07:00:53;;;;;;;709.63;374.80;;;;;;;;;;5000787;28;20038;-87
2021/12/22 07:03:19;;;;;;;161.15;87.40;;;;;;;;;;5000951;28;20313;-88
2021/12/22 07:05:45;;;;;;;516.35;298.80;;;;;;;;;;4999422;28;20035;-86
2021/12/22 07:08:11;;;;;;;133.30;70.95;;;;;;;;;;4999575;28;20356;-86
2021/12/22 07:10:37;;;;;;;345.92;194.52;;;;;;;;;;5000249;28;20369;-87
2021/12/22 07:13:04;;;;;;;115.55;62.60;;;;;;;;;;4999021;28;20027;-87
2021/12/22 07:15:30;;;;;;;66.00;35.17;;;;;;;;;;5000627;28;20034;-87
2021/12/22 07:17:56;;;;;;;63.55;35.55;;;;;;;;;;5000451;28;20019;-87
2021/12/22 07:20:23;;;;;;;88.32;45.92;;;;;;;;;;4999443;28;20394;-87
2021/12/22 07:22:49;;;;;;;68.55;34.42;;;;;;;;;;5000344;28;20018;-87
2021/12/22 07:25:18;;;;;;;87.00;42.95;;;;;;;;;;4999343;28;20034;-87
2021/12/22 07:27:44;;;;;;;129.35;67.22;;;;;;;;;;5000576;28;20436;-87
2021/12/22 07:30:11;;;;;;;222.27;127.60;;;;;;;;;;5000071;28;20034;-87
2021/12/22 07:32:37;;;;;;;223.32;122.38;;;;;;;;;;5000141;28;20061;-87
2021/12/22 07:35:03;;;;;;;188.93;119.10;;;;;;;;;;4999940;28;20033;-87
2021/12/22 07:37:43;;;;;;;258.27;154.23;;;;;;;;;;5000325;28;20030;-87
2021/12/22 07:40:11;;;;;;;195.88;104.75;;;;;;;;;;5000029;28;20073;-87
2021/12/22 07:42:37;;;;;;;144.82;71.82;;;;;;;;;;4999800;28;20114;-87
2021/12/22 07:45:03;;;;;;;167.32;92.30;;;;;;;;;;4998905;28;20030;-87
2021/12/22 07:47:30;;;;;;;144.88;85.20;;;;;;;;;;4999829;28;20030;-87
2021/12/22 07:49:56;;;;;;;184.25;102.30;;;;;;;;;;4999195;28;20409;-88
2021/12/22 07:52:26;;;;;;;146.88;78.75;;;;;;;;;;4999841;28;20464;-87
2021/12/22 07:54:52;;;;;;;209.23;107.20;;;;;;;;;;4998759;28;20034;-87
2021/12/22 07:57:18;;;;;;;235.07;117.65;;;;;;;;;;4999782;28;20109;-87
2021/12/22 07:59:44;;;;;;;233.95;114.45;;;;;;;;;;4998578;28;20030;-87
2021/12/22 08:02:12;;;;;;;198.50;97.85;;;;;;;;;;4998620;28;20125;-88
2021/12/22 08:04:38;;;;;;;367.88;185.13;;;;;;;;;;4998806;28;20092;-88
2021/12/22 08:07:04;;;;;;;268.20;135.18;;;;;;;;;;4999497;28;20033;-87
2021/12/22 08:09:30;;;;;;;360.27;176.18;;;;;;;;;;4998656;28;20402;-87
2021/12/22 08:12:04;;;;;;;333.52;151.27;;;;;;;;;;4999761;28;20026;-88
2021/12/22 08:14:33;;;;;;;301.00;144.93;;;;;;;;;;4999516;28;20038;-87
2021/12/22 08:16:59;;;;;;;262.10;133.63;;;;;;;;;;4998223;28;20026;-87
2021/12/22 08:19:25;;;;;;;187.30;92.18;;;;;;;;;;4998447;28;20023;-88
2021/12/22 08:21:51;;;;;;;221.43;109.70;;;;;;;;;;4999213;28;20483;-87
2021/12/22 08:24:17;;;;;;;355.13;178.75;;;;;;;;;;4999103;28;20018;-87
2021/12/22 08:26:43;;;;;;;341.30;164.15;;;;;;;;;;4999341;28;20019;-86
2021/12/22 08:29:09;;;;;;;101.65;53.85;;;;;;;;;;4999243;28;20113;-88
2021/12/22 08:31:37;;;;;;;162.20;79.10;;;;;;;;;;4999068;28;20061;-88
2021/12/22 08:34:04;;;;;;;91.28;47.40;;;;;;;;;;4999049;28;20049;-88
2021/12/22 08:39:16;;;;;;;106.85;50.95;;;;;;;;;;4999143;28;20500;-87
2021/12/22 08:41:47;;;;;;;83.88;43.35;;;;;;;;;;4998968;28;20361;-87
2021/12/22 08:44:14;;;;;;;76.80;40.97;;;;;;;;;;4998846;28;20097;-89
2021/12/22 08:46:42;;;;;;;84.40;44.70;;;;;;;;;;4998050;28;20031;-88
2021/12/22 08:49:08;;;;;;;93.38;45.47;;;;;;;;;;4998961;28;20467;-87
2021/12/22 08:51:35;;;;;;;148.95;74.97;;;;;;;;;;4997752;28;20023;-87
2021/12/22 08:54:01;;;;;;;72.97;38.45;;;;;;;;;;4997752;28;20034;-86
2021/12/22 08:56:28;;;;;;;77.00;40.67;;;;;;;;;;4997772;28;20037;-87
2021/12/22 08:58:54;;;;;;;62.67;35.35;;;;;;;;;;4998609;28;20033;-87
2021/12/22 09:01:21;;;;;;;67.95;35.28;;;;;;;;;;4997443;28;20126;-88
2021/12/22 09:03:47;;;;;;;52.40;28.52;;;;;;;;;;4998505;28;20046;-87
2021/12/22 09:06:14;;;;;;;54.10;27.58;;;;;;;;;;4998787;28;20034;-87
2021/12/22 09:08:41;;;;;;;57.10;30.08;;;;;;;;;;4998542;28;20389;-87
2021/12/22 09:11:07;;;;;;;57.92;32.25;;;;;;;;;;4997659;28;20034;-87
2021/12/22 09:13:35;;;;;;;425.35;215.27;;;;;;;;;;4998576;28;20071;-85
2021/12/22 09:16:01;;;;;;;74.90;41.88;;;;;;;;;;4995642;28;20109;-87
2021/12/22 09:18:27;;;;;;;52.35;31.95;;;;;;;;;;4998371;28;20421;-88
2021/12/22 09:20:54;;;;;;;53.97;28.98;;;;;;;;;;4998219;28;20050;-87
2021/12/22 09:23:20;;;;;;;57.88;32.20;;;;;;;;;;4998065;28;20657;-88
2021/12/22 09:25:46;;;;;;;67.60;36.50;;;;;;;;;;4998347;28;20029;-87
2021/12/22 09:28:13;;;;;;;53.42;30.20;;;;;;;;;;4998433;28;20371;-88
2021/12/22 09:30:42;;;;;;;53.33;32.63;;;;;;;;;;4997893;28;20026;-87
2021/12/22 09:33:14;;;;;;;42.33;25.30;;;;;;;;;;4998093;28;20037;-87
2021/12/22 09:35:40;;;;;;;42.60;24.90;;;;;;;;;;4997472;28;20247;-87
2021/12/22 09:38:07;;;;;;;40.72;23.70;;;;;;;;;;4998125;28;20022;-87
2021/12/22 09:40:33;;;;;;;47.45;25.80;;;;;;;;;;4998190;28;20070;-88
2021/12/22 09:42:59;;;;;;;49.65;26.58;;;;;;;;;;4997720;28;20030;-88
2021/12/22 09:45:26;;;;;;;43.25;24.20;;;;;;;;;;4997131;28;20317;-87
2021/12/22 09:53:13;;;;;;;36.85;20.83;;;;;;;;;;4998256;28;20044;-87
2021/12/22 09:55:39;;;;;;;38.70;22.20;;;;;;;;;;4997804;28;20029;-87
2021/12/22 09:58:05;;;;;;;125.90;55.00;;;;;;;;;;4997825;28;20027;-87
2021/12/22 10:00:34;;;;;;;476.33;212.63;;;;;;;;;;4998090;28;20536;-86
2021/12/22 10:03:00;;;;;;;104.45;49.72;;;;;;;;;;4997039;28;20077;-87
2021/12/22 10:05:26;;;;;;;52.22;30.17;;;;;;;;;;4997875;28;20110;-87
2021/12/22 10:08:25;;;;;;;46.75;28.67;;;;;;;;;;4997848;28;20073;-87
2021/12/22 10:10:59;;;;;;;46.88;26.38;;;;;;;;;;4941306;29;20079;-86
2021/12/22 10:13:27;;;;;;;54.55;31.35;;;;;;;;;;4957527;29;20039;-86
2021/12/22 10:15:53;;;;;;;84.13;44.20;;;;;;;;;;4941357;29;20027;-86
2021/12/22 10:18:20;;;;;;;73.80;39.28;;;;;;;;;;4957537;29;20027;-88
2021/12/22 10:20:48;;;;;;;57.03;31.20;;;;;;;;;;4957450;28;20533;-87
2021/12/22 10:23:23;;;;;;;41.88;23.23;;;;;;;;;;4941135;29;20434;-86
2021/12/22 10:25:53;;;;;;;44.42;23.63;;;;;;;;;;4941377;29;20031;-87
2021/12/22 10:28:19;;;;;;;48.35;26.00;;;;;;;;;;4957303;29;20322;-87
2021/12/22 10:30:47;;;;;;;43.83;24.40;;;;;;;;;;4957324;29;20123;-87
2021/12/22 10:33:20;;;;;;;46.10;24.73;;;;;;;;;;4941343;29;20035;-87
2021/12/22 10:35:48;;;;;;;45.22;25.20;;;;;;;;;;4957238;29;20071;-87
2021/12/22 10:38:15;;;;;;;42.13;25.08;;;;;;;;;;4957067;29;20023;-87
2021/12/22 10:40:42;;;;;;;49.45;26.73;;;;;;;;;;4957058;29;20048;-87
2021/12/22 10:43:14;;;;;;;44.30;24.58;;;;;;;;;;4957357;29;20126;-87
2021/12/22 10:45:40;;;;;;;53.58;29.40;;;;;;;;;;4966514;28;20049;-86
2021/12/22 10:50:53;;;;;;;50.85;28.52;;;;;;;;;;5001347;28;20077;-88
2021/12/22 10:53:19;;;;;;;53.13;29.55;;;;;;;;;;5001167;28;20027;-87
2021/12/22 10:55:48;;;;;;;53.35;30.05;;;;;;;;;;5001101;28;20022;-87
2021/12/22 10:58:17;;;;;;;59.65;32.30;;;;;;;;;;5001021;28;20030;-88
2021/12/22 11:01:18;;;;;;;57.60;32.58;;;;;;;;;;5000834;28;20030;-87
2021/12/22 11:03:48;;;;;;;59.88;28.58;;;;;;;;;;4925426;29;20020;-87
2021/12/22 11:06:22;;;;;;;92.53;45.42;;;;;;;;;;4941322;29;20036;-87
2021/12/22 11:08:54;;;;;;;216.60;106.63;;;;;;;;;;4941085;29;20047;-86
2021/12/22 11:11:20;;;;;;;55.78;29.48;;;;;;;;;;4941134;29;20071;-88
2021/12/22 11:14:00;;;;;;;55.22;30.02;;;;;;;;;;4941329;29;20044;-87
2021/12/22 11:16:26;;;;;;;52.25;28.95;;;;;;;;;;4940749;29;20032;-87
2021/12/22 11:18:52;;;;;;;56.58;29.23;;;;;;;;;;4941137;29;20032;-87
2021/12/22 11:21:29;;;;;;;42.78;23.33;;;;;;;;;;4940945;29;20059;-85
2021/12/22 11:23:56;;;;;;;40.78;23.27;;;;;;;;;;4924701;29;20052;-87
2021/12/22 11:26:22;;;;;;;47.88;26.20;;;;;;;;;;4924839;29;20184;-87
2021/12/22 11:28:48;;;;;;;51.28;28.73;;;;;;;;;;4940901;29;20513;-87
2021/12/22 11:31:14;;;;;;;38.88;20.00;;;;;;;;;;4924421;29;20032;-87
2021/12/22 11:33:41;;;;;;;32.00;17.90;;;;;;;;;;4940701;29;20300;-87
2021/12/22 11:36:10;;;;;;;36.90;20.50;;;;;;;;;;4924464;29;20047;-87
2021/12/22 11:38:36;;;;;;;103.18;45.03;;;;;;;;;;4990726;28;20041;-87
2021/12/22 11:41:15;;;;;;;40.33;21.77;;;;;;;;;;5000172;28;20042;-86
2021/12/22 11:43:42;;;;;;;46.03;22.77;;;;;;;;;;5000464;28;20042;-87
2021/12/22 11:46:09;;;;;;;23.67;13.65;;;;;;;;;;4999163;28;20038;-87
2021/12/22 11:48:35;;;;;;;23.00;11.65;;;;;;;;;;4999992;28;20030;-87
2021/12/22 11:51:02;;;;;;;19.70;11.65;;;;;;;;;;4999263;28;20041;-87
2021/12/22 11:53:48;;;;;;;13.48;7.82;;;;;;;;;;5000144;28;20023;-87
2021/12/22 11:56:34;;;;;;;19.85;11.75;;;;;;;;;;4999670;28;20313;-87
2021/12/22 11:59:00;;;;;;;24.05;11.35;;;;;;;;;;4999275;28;20294;-88
2021/12/22 12:01:26;;;;;;;22.95;12.63;;;;;;;;;;4998781;28;20077;-87
2021/12/22 12:04:10;;;;;;;19.35;11.05;;;;;;;;;;4999957;28;20348;-87
2021/12/22 12:06:52;;;;;;;23.35;13.88;;;;;;;;;;4999691;28;20026;-87
2021/12/22 12:09:22;;;;;;;34.45;19.88;;;;;;;;;;4999872;28;20027;-87
2021/12/22 12:11:55;;;;;;;21.20;12.27;;;;;;;;;;4999985;28;20038;-88
2021/12/22 12:23:15;;;;;;;25.08;13.57;;;;;;;;;;4999424;28;20045;-87
2021/12/22 12:25:41;;;;;;;21.48;11.95;;;;;;;;;;4999189;28;20038;-87
2021/12/22 12:28:14;;;;;;;22.88;13.93;;;;;;;;;;4999209;28;20023;-87
2021/12/22 12:30:45;;;;;;;18.08;11.35;;;;;;;;;;4999217;28;20329;-87
2021/12/22 12:33:12;;;;;;;63.65;29.52;;;;;;;;;;4999537;28;20069;-87
2021/12/22 12:35:48;;;;;;;215.50;82.78;;;;;;;;;;4998254;28;20114;-87
2021/12/22 12:38:16;;;;;;;73.47;33.00;;;;;;;;;;4998060;28;20029;-87
2021/12/22 12:40:58;;;;;;;31.83;18.17;;;;;;;;;;4998788;28;20436;-86
2021/12/22 12:43:46;;;;;;;26.77;15.35;;;;;;;;;;4999147;28;20027;-87
2021/12/22 12:48:52;;;;;;;20.05;12.52;;;;;;;;;;4998953;28;20034;-86
2021/12/22 12:51:20;;;;;;;21.45;12.80;;;;;;;;;;4997894;28;20041;-86
2021/12/22 12:53:48;;;;;;;22.60;13.50;;;;;;;;;;4998891;28;20106;-86
2021/12/22 12:56:15;;;;;;;21.58;13.23;;;;;;;;;;4997737;28;20058;-87
2021/12/22 12:58:57;;;;;;;23.63;13.40;;;;;;;;;;4998714;28;20030;-87
2021/12/22 13:01:52;;;;;;;27.80;15.65;;;;;;;;;;4997703;28;20037;-86
2021/12/22 13:04:20;;;;;;;28.85;15.45;;;;;;;;;;4997573;28;20095;-87
2021/12/22 13:06:46;;;;;;;28.25;15.05;;;;;;;;;;4998690;28;20027;-86
2021/12/22 13:09:26;;;;;;;20.90;12.80;;;;;;;;;;4997965;28;20072;-87
2021/12/22 13:12:03;;;;;;;27.00;13.80;;;;;;;;;;4998852;28;20316;-89
2021/12/22 13:17:15;;;;;;;25.20;14.77;;;;;;;;;;4998296;28;20443;-87
2021/12/22 13:19:42;;;;;;;29.90;17.00;;;;;;;;;;4997252;28;20049;-87
2021/12/22 13:22:22;;;;;;;30.65;17.58;;;;;;;;;;4998304;28;20401;-86
2021/12/22 13:24:48;;;;;;;26.80;15.45;;;;;;;;;;4997203;28;20035;-86
2021/12/22 13:27:30;;;;;;;24.20;15.10;;;;;;;;;;4998275;28;20026;-86
2021/12/22 13:30:06;;;;;;;26.30;15.18;;;;;;;;;;4998236;28;20481;-86
2021/12/22 13:32:32;;;;;;;31.42;17.40;;;;;;;;;;4998259;28;20333;-86
2021/12/22 13:34:59;;;;;;;36.67;19.42;;;;;;;;;;4997236;28;20444;-87
2021/12/22 13:37:26;;;;;;;53.97;28.02;;;;;;;;;;4998116;28;20030;-87
2021/12/22 13:39:53;;;;;;;54.40;25.90;;;;;;;;;;4998262;28;20433;-86
2021/12/22 13:42:19;;;;;;;122.57;47.03;;;;;;;;;;4997209;28;20039;-86
2021/12/22 13:44:45;;;;;;;345.17;126.60;;;;;;;;;;4997085;28;20034;-86
2021/12/22 13:47:11;;;;;;;150.70;57.08;;;;;;;;;;4998086;28;20030;-86
2021/12/22 13:49:37;;;;;;;113.82;49.90;;;;;;;;;;4997786;28;20378;-87
2021/12/22 13:52:04;;;;;;;47.05;25.10;;;;;;;;;;4998168;28;20034;-86
2021/12/22 13:54:32;;;;;;;63.25;32.75;;;;;;;;;;4998151;28;20019;-83
2021/12/22 13:57:09;;;;;;;43.42;24.15;;;;;;;;;;4996979;28;20026;-86
2021/12/22 13:59:36;;;;;;;40.17;25.08;;;;;;;;;;4998159;28;20053;-86
2021/12/22 14:02:04;;;;;;;44.53;27.48;;;;;;;;;;4997229;28;20328;-86
2021/12/22 14:04:36;;;;;;;130.90;55.78;;;;;;;;;;4997097;28;20443;-86
2021/12/22 14:07:09;;;;;;;65.65;30.42;;;;;;;;;;4996935;28;20328;-85
2021/12/22 14:09:48;;;;;;;54.97;27.27;;;;;;;;;;4997893;28;20118;-86
2021/12/22 14:12:15;;;;;;;57.17;27.23;;;;;;;;;;4997697;28;20062;-86
2021/12/22 14:14:43;;;;;;;49.70;25.40;;;;;;;;;;4997619;28;20113;-86
2021/12/22 14:17:13;;;;;;;37.38;21.45;;;;;;;;;;4997922;28;20080;-84
2021/12/22 14:19:41;;;;;;;42.58;23.00;;;;;;;;;;4997669;28;20412;-85
2021/12/22 14:22:09;;;;;;;44.53;23.00;;;;;;;;;;5001050;28;20034;-86
2021/12/22 14:24:37;;;;;;;41.80;22.02;;;;;;;;;;5001647;28;20145;-84
2021/12/22 14:27:03;;;;;;;47.25;23.13;;;;;;;;;;5001672;28;20027;-85
2021/12/22 14:29:30;;;;;;;67.07;28.83;;;;;;;;;;5000802;28;20061;-86
2021/12/22 14:31:58;;;;;;;111.45;48.17;;;;;;;;;;5000258;28;20057;-86
2021/12/22 14:34:24;;;;;;;175.98;68.70;;;;;;;;;;5001331;28;20108;-86
2021/12/22 14:36:51;;;;;;;161.90;62.92;;;;;;;;;;5001247;28;20069;-85
2021/12/22 14:39:17;;;;;;;180.00;68.30;;;;;;;;;;5000595;28;20080;-85
2021/12/22 14:41:44;;;;;;;203.82;72.50;;;;;;;;;;5001539;28;20141;-85
2021/12/22 14:44:17;;;;;;;227.93;84.03;;;;;;;;;;4999270;28;20090;-85
2021/12/22 14:46:43;;;;;;;353.15;133.88;;;;;;;;;;4997075;28;20030;-86
2021/12/22 14:49:17;;;;;;;308.95;124.35;;;;;;;;;;5001209;28;20037;-86
2021/12/22 14:51:43;;;;;;;220.80;90.50;;;;;;;;;;5001053;28;20078;-86
2021/12/22 14:54:11;;;;;;;245.45;97.43;;;;;;;;;;5001054;28;20101;-86
2021/12/22 14:56:41;;;;;;;415.10;126.40;;;;;;;;;;5000978;28;20061;-86
2021/12/22 14:59:07;;;;;;;468.17;138.23;;;;;;;;;;4999066;28;20026;-87
2021/12/22 15:01:35;;;;;;;426.80;126.90;;;;;;;;;;5000906;28;20053;-86
2021/12/22 15:04:01;;;;;;;373.88;107.50;;;;;;;;;;5001017;28;20337;-86
2021/12/22 15:06:27;;;;;;;294.27;90.60;;;;;;;;;;5001061;28;20320;-85
2021/12/22 15:08:54;;;;;;;295.33;93.13;;;;;;;;;;4993732;28;20039;-86
2021/12/22 15:11:21;;;;;;;256.05;88.57;;;;;;;;;;4981449;28;20082;-86
2021/12/22 15:13:47;;;;;;;216.20;70.65;;;;;;;;;;4981239;28;20409;-87
2021/12/22 15:16:16;;;;;;;192.50;66.75;;;;;;;;;;4980659;28;20126;-86
2021/12/22 15:18:43;;;;;;;102.75;39.78;;;;;;;;;;4981061;28;20023;-85
2021/12/22 15:21:09;;;;;;;44.90;23.15;;;;;;;;;;4981357;28;20023;-87
2021/12/22 15:23:36;;;;;;;39.70;21.13;;;;;;;;;;4981129;28;20023;-86
2021/12/22 15:26:02;;;;;;;43.45;22.30;;;;;;;;;;4981015;28;20061;-86